Islip, New York
Current Conditions -  °F | °C
As of 9:56 PM on Friday 21 Nov 2014 (Local Time) from KISP Reporting Station
Clear Clear  
Wind Chill: 22°   Ceiling: Unl
Heat Index: 30°   Visibility: 10mi
Dew Point:   Wind: 9mph
Humidity: 41%   Direction: 290°WNW
Pressure: 30.47"   Gusts: NA
Location:  40.73°N, 73.21°W
Report Text: KISP 220256Z 29008KT 10SM CLR M01/M13 A3047 RMK AO2 SLP318 T10111128 53014
Loading
Personal Weather Stations






























Interactive Weather Map New forecast layout! Learn more

10-Day Weather Forecast

Advertisements
Track Severe Weather on mobile